createdAt,value
2023-05-19T00:01:17.616Z,9.90
2023-05-19T00:03:57.702Z,9.91
2023-05-19T00:06:26.830Z,9.78
2023-05-19T00:08:59.402Z,9.89
2023-05-19T00:11:27.768Z,9.77
2023-05-19T00:13:55.921Z,9.70
2023-05-19T00:16:23.912Z,9.80
2023-05-19T00:18:51.689Z,9.58
2023-05-19T00:21:18.686Z,9.64
2023-05-19T00:23:45.655Z,9.71
2023-05-19T00:26:12.761Z,9.66
2023-05-19T00:28:39.462Z,9.70
2023-05-19T00:31:06.506Z,9.66
2023-05-19T00:33:34.037Z,9.63
2023-05-19T00:36:03.966Z,9.48
2023-05-19T00:38:32.017Z,9.53
2023-05-19T00:40:59.802Z,9.54
2023-05-19T00:43:26.785Z,9.46
2023-05-19T00:45:53.675Z,9.52
2023-05-19T00:48:20.892Z,9.46
2023-05-19T00:50:48.510Z,9.47
2023-05-19T00:53:18.183Z,9.46
2023-05-19T00:55:46.270Z,9.44
2023-05-19T00:58:14.552Z,9.29
2023-05-19T01:00:42.730Z,9.31
2023-05-19T01:03:12.777Z,9.27
2023-05-19T01:05:44.748Z,9.40
2023-05-19T01:08:11.849Z,9.22
2023-05-19T01:10:38.517Z,9.23
2023-05-19T01:13:06.512Z,9.21
2023-05-19T01:15:55.042Z,9.08
2023-05-19T01:18:27.774Z,9.04
2023-05-19T01:21:36.239Z,9.12
2023-05-19T01:24:35.064Z,9.06
2023-05-19T01:27:01.629Z,9.02
2023-05-19T01:29:33.001Z,8.94
2023-05-19T01:32:00.545Z,8.86
2023-05-19T01:34:27.677Z,8.90
2023-05-19T01:36:55.967Z,8.87
2023-05-19T01:39:24.948Z,8.91
2023-05-19T01:41:53.633Z,8.96
2023-05-19T01:44:22.165Z,8.83
2023-05-19T01:46:49.701Z,8.77
2023-05-19T01:49:16.499Z,8.90
2023-05-19T01:51:43.394Z,8.78
2023-05-19T01:54:10.063Z,8.63
2023-05-19T01:57:00.700Z,8.71
2023-05-19T01:59:55.518Z,8.71
2023-05-19T02:02:35.315Z,8.69
2023-05-19T02:05:13.501Z,8.74
2023-05-19T02:07:51.010Z,8.67
2023-05-19T02:10:24.214Z,8.72
2023-05-19T02:12:54.105Z,8.60
2023-05-19T02:15:27.992Z,8.54
2023-05-19T02:17:55.789Z,8.55
2023-05-19T02:20:22.562Z,8.68
2023-05-19T02:22:49.298Z,8.62
2023-05-19T02:25:16.068Z,8.69
2023-05-19T02:27:42.783Z,8.74
2023-05-19T02:30:10.242Z,8.69
2023-05-19T02:32:37.273Z,8.69
2023-05-19T02:35:04.847Z,8.68
2023-05-19T02:37:32.518Z,8.63
2023-05-19T02:39:59.364Z,8.58
2023-05-19T02:42:26.140Z,8.65
2023-05-19T02:44:54.800Z,8.69
2023-05-19T02:47:21.557Z,8.68
2023-05-19T02:49:48.318Z,8.57
2023-05-19T02:52:14.985Z,8.32
2023-05-19T02:54:41.714Z,8.37
2023-05-19T02:57:08.428Z,8.39
2023-05-19T02:59:35.346Z,8.33
2023-05-19T03:02:02.977Z,8.33
2023-05-19T03:04:29.939Z,8.36
2023-05-19T03:06:57.810Z,8.30
2023-05-19T03:09:24.616Z,8.28
2023-05-19T03:11:51.533Z,8.32
2023-05-19T03:14:18.801Z,8.21
2023-05-19T03:16:45.879Z,8.25
2023-05-19T03:19:12.816Z,8.24
2023-05-19T03:21:39.503Z,8.32
2023-05-19T03:24:07.130Z,8.15
2023-05-19T03:26:33.804Z,8.26
2023-05-19T03:29:00.967Z,8.06
2023-05-19T03:31:27.760Z,8.13
2023-05-19T03:33:54.466Z,8.10
2023-05-19T03:36:22.157Z,8.04
2023-05-19T03:38:48.983Z,8.07
2023-05-19T03:41:16.009Z,8.08
2023-05-19T03:43:42.737Z,8.07
2023-05-19T03:46:09.468Z,8.01
2023-05-19T03:48:36.334Z,7.92
2023-05-19T03:51:04.385Z,8.09
2023-05-19T03:53:31.088Z,8.06
2023-05-19T03:55:57.755Z,8.02
2023-05-19T03:58:24.409Z,7.94
2023-05-19T04:00:51.088Z,8.08
2023-05-19T04:03:18.925Z,8.02
2023-05-19T04:05:45.696Z,7.86
2023-05-19T04:08:12.398Z,8.11
2023-05-19T04:10:39.110Z,8.17
2023-05-19T04:13:05.862Z,8.23
2023-05-19T04:15:32.566Z,8.26
2023-05-19T04:17:59.280Z,8.17
2023-05-19T04:20:25.947Z,8.24
2023-05-19T04:22:52.604Z,8.29
2023-05-19T04:25:20.184Z,8.24
2023-05-19T04:27:48.268Z,8.17
2023-05-19T04:30:22.023Z,8.44
2023-05-19T04:32:51.628Z,8.53
2023-05-19T04:35:18.398Z,8.63
2023-05-19T04:37:48.476Z,8.59
2023-05-19T04:40:15.961Z,8.87
2023-05-19T04:42:43.132Z,8.77
2023-05-19T04:45:10.370Z,8.78
2023-05-19T04:47:38.174Z,8.94
2023-05-19T04:50:05.734Z,9.23
2023-05-19T04:52:32.444Z,9.13
2023-05-19T04:54:59.180Z,9.17
2023-05-19T04:57:26.015Z,9.51
2023-05-19T04:59:53.241Z,9.44
2023-05-19T05:02:20.236Z,9.59
2023-05-19T05:04:47.023Z,9.58
2023-05-19T05:07:13.676Z,9.37
2023-05-19T05:09:40.514Z,9.81
2023-05-19T05:12:07.999Z,9.89
2023-05-19T05:14:35.022Z,9.98
2023-05-19T05:17:02.509Z,9.98
2023-05-19T05:19:29.552Z,9.87
2023-05-19T05:21:56.575Z,10.12
2023-05-19T05:24:23.516Z,10.02
2023-05-19T05:26:50.511Z,10.28
2023-05-19T05:29:17.196Z,9.78
2023-05-19T05:31:43.890Z,9.44
2023-05-19T05:34:10.821Z,9.85
2023-05-19T05:36:37.472Z,10.47
2023-05-19T05:39:05.579Z,10.93
2023-05-19T05:41:35.449Z,11.44
2023-05-19T05:44:03.180Z,12.20
2023-05-19T05:46:30.362Z,12.44
2023-05-19T05:48:57.621Z,12.44
2023-05-19T05:51:24.645Z,12.97
2023-05-19T05:53:55.360Z,14.70
2023-05-19T05:56:22.403Z,15.29
2023-05-19T05:58:49.701Z,17.52
2023-05-19T06:01:17.736Z,19.18
2023-05-19T06:03:45.135Z,19.74
2023-05-19T06:06:13.910Z,18.04
2023-05-19T06:08:40.883Z,20.30
2023-05-19T06:11:10.552Z,18.94
2023-05-19T06:13:38.645Z,17.76
2023-05-19T06:16:06.136Z,19.04
2023-05-19T06:18:33.013Z,20.84
2023-05-19T06:20:59.723Z,21.35
2023-05-19T06:23:29.004Z,21.07
2023-05-19T06:25:56.443Z,19.98
2023-05-19T06:28:23.198Z,17.87
2023-05-19T06:30:50.005Z,15.75
2023-05-19T06:33:16.759Z,15.42
2023-05-19T06:35:43.490Z,14.62
2023-05-19T06:38:10.476Z,14.29
2023-05-19T06:40:37.222Z,13.30
2023-05-19T06:43:04.828Z,14.25
2023-05-19T06:45:31.929Z,13.91
2023-05-19T06:47:58.912Z,15.22
2023-05-19T06:50:25.698Z,14.80
2023-05-19T06:52:52.829Z,14.04
2023-05-19T06:55:19.793Z,14.42
2023-05-19T06:57:46.510Z,14.88
2023-05-19T07:00:16.730Z,14.92
2023-05-19T07:02:45.101Z,14.70
2023-05-19T07:05:11.886Z,15.55
2023-05-19T07:07:38.556Z,13.33
2023-05-19T07:10:05.889Z,14.30
2023-05-19T07:12:32.624Z,15.31
2023-05-19T07:14:59.348Z,13.62
2023-05-19T07:17:26.258Z,14.96
2023-05-19T07:19:53.015Z,13.96
2023-05-19T07:22:19.757Z,14.03
2023-05-19T07:24:46.457Z,15.05
2023-05-19T07:27:13.162Z,13.56
2023-05-19T07:29:40.020Z,13.15
2023-05-19T07:32:07.087Z,15.26
2023-05-19T07:34:33.850Z,14.55
2023-05-19T07:37:00.679Z,15.21
2023-05-19T07:39:29.723Z,14.50
2023-05-19T07:41:56.621Z,14.19
2023-05-19T07:44:23.486Z,15.46
2023-05-19T07:46:50.193Z,14.12
2023-05-19T07:49:16.861Z,15.66
2023-05-19T07:51:43.525Z,14.16
2023-05-19T07:54:10.368Z,13.44
2023-05-19T07:56:37.226Z,13.74
2023-05-19T07:59:04.561Z,14.56
2023-05-19T08:01:32.377Z,15.42
2023-05-19T08:03:59.169Z,15.58
2023-05-19T08:06:26.039Z,14.87
2023-05-19T08:08:54.281Z,13.98
2023-05-19T08:11:21.616Z,14.89
2023-05-19T08:13:49.327Z,13.69
2023-05-19T08:16:16.339Z,17.36
2023-05-19T08:18:43.388Z,17.48
2023-05-19T08:21:10.218Z,18.00
2023-05-19T08:23:37.507Z,14.65
2023-05-19T08:26:04.765Z,14.30
2023-05-19T08:28:32.058Z,17.14
2023-05-19T08:30:58.779Z,17.05
2023-05-19T08:33:25.634Z,17.57
2023-05-19T08:35:52.355Z,17.58
2023-05-19T08:38:19.090Z,18.25
2023-05-19T08:40:47.466Z,16.02
2023-05-19T08:43:14.616Z,15.63
2023-05-19T08:45:48.315Z,17.43
2023-05-19T08:48:17.103Z,18.28
2023-05-19T08:51:02.212Z,18.12
2023-05-19T08:53:37.700Z,18.25
2023-05-19T08:56:18.228Z,17.26
2023-05-19T08:58:45.991Z,18.50
2023-05-19T09:01:16.916Z,15.39
2023-05-19T09:03:45.067Z,17.96
2023-05-19T09:06:14.898Z,17.86
2023-05-19T09:08:42.977Z,18.09
2023-05-19T09:11:10.822Z,20.51
2023-05-19T09:13:37.807Z,19.25
2023-05-19T09:16:04.940Z,19.15
2023-05-19T09:18:31.924Z,19.54
2023-05-19T09:21:05.049Z,21.67
2023-05-19T09:23:34.086Z,20.14
2023-05-19T09:26:07.282Z,19.72
2023-05-19T09:28:36.403Z,19.62
2023-05-19T09:31:08.493Z,17.12
2023-05-19T09:33:36.386Z,18.31
2023-05-19T09:36:06.145Z,17.11
2023-05-19T09:38:33.129Z,17.50
2023-05-19T09:41:00.794Z,16.14
2023-05-19T09:43:32.874Z,16.31
2023-05-19T09:46:06.837Z,16.35
2023-05-19T09:48:37.435Z,14.39
2023-05-19T09:51:06.290Z,15.87
2023-05-19T09:53:34.361Z,16.59
2023-05-19T09:56:02.268Z,15.77
2023-05-19T09:58:36.525Z,16.50
2023-05-19T10:01:04.616Z,17.31
2023-05-19T10:03:33.009Z,16.36
2023-05-19T10:06:01.989Z,17.82
2023-05-19T10:08:30.595Z,17.13
2023-05-19T10:10:57.790Z,18.10
2023-05-19T10:13:25.565Z,15.57
2023-05-19T10:18:23.092Z,16.85
2023-05-19T10:20:51.124Z,16.57
2023-05-19T10:23:18.677Z,17.45
2023-05-19T10:25:46.447Z,17.49
2023-05-19T10:28:16.298Z,18.18
2023-05-19T10:30:50.860Z,19.02
2023-05-19T10:33:23.199Z,19.04
2023-05-19T10:36:10.953Z,18.75
2023-05-19T10:38:52.640Z,18.54
2023-05-19T10:41:31.824Z,16.89
2023-05-19T10:44:28.099Z,16.99
2023-05-19T10:46:56.814Z,16.44
2023-05-19T10:49:24.353Z,16.86
2023-05-19T10:51:58.430Z,17.63
2023-05-19T10:54:41.177Z,15.09
2023-05-19T10:57:08.735Z,14.05
2023-05-19T10:59:39.910Z,15.10
2023-05-19T11:02:08.695Z,14.58
2023-05-19T11:04:52.001Z,15.04
2023-05-19T11:07:24.618Z,15.68
2023-05-19T11:09:54.546Z,15.78
2023-05-19T11:12:25.561Z,14.89
2023-05-19T11:14:54.301Z,15.11
2023-05-19T11:17:24.288Z,14.27
2023-05-19T11:19:55.289Z,14.48
2023-05-19T11:22:29.485Z,15.35
2023-05-19T11:24:57.260Z,14.04
2023-05-19T11:27:32.753Z,13.97
2023-05-19T11:30:02.123Z,12.71
2023-05-19T11:32:30.888Z,13.19
2023-05-19T11:34:58.084Z,14.08
2023-05-19T11:37:25.121Z,14.14
2023-05-19T11:39:52.939Z,14.14
2023-05-19T11:42:19.710Z,14.37
2023-05-19T11:44:46.817Z,14.29
2023-05-19T11:47:14.895Z,13.67
2023-05-19T11:49:45.997Z,14.43
2023-05-19T11:52:13.144Z,15.30
2023-05-19T11:54:41.925Z,15.44
2023-05-19T11:57:14.094Z,14.37
2023-05-19T11:59:45.413Z,12.44
2023-05-19T12:02:24.936Z,13.32
2023-05-19T12:04:52.202Z,13.85
2023-05-19T12:07:22.796Z,13.07
2023-05-19T12:09:50.967Z,13.08
2023-05-19T12:12:19.598Z,13.90
2023-05-19T12:14:47.275Z,13.87
2023-05-19T12:17:19.488Z,13.97
2023-05-19T12:19:48.612Z,13.90
2023-05-19T12:22:17.244Z,14.60
2023-05-19T12:24:45.115Z,14.17
2023-05-19T12:27:15.421Z,14.36
2023-05-19T12:29:42.205Z,13.34
2023-05-19T12:32:09.880Z,12.80
2023-05-19T12:34:38.226Z,13.04
2023-05-19T12:37:05.972Z,12.75
2023-05-19T12:39:33.748Z,13.60
2023-05-19T12:42:04.544Z,13.71
2023-05-19T12:44:31.588Z,13.33
2023-05-19T12:46:59.553Z,13.94
2023-05-19T12:49:26.349Z,13.72
2023-05-19T12:51:54.031Z,12.89
2023-05-19T12:54:22.075Z,13.93
2023-05-19T12:56:52.857Z,13.56
2023-05-19T12:59:37.451Z,13.87
2023-05-19T13:02:06.350Z,12.64
2023-05-19T13:04:33.215Z,13.23
2023-05-19T13:07:00.032Z,13.66
2023-05-19T13:09:27.903Z,13.18
2023-05-19T13:11:54.873Z,13.34
2023-05-19T13:14:21.981Z,12.64
2023-05-19T13:16:48.744Z,12.72
2023-05-19T13:19:25.247Z,12.73
2023-05-19T13:21:52.900Z,11.96
2023-05-19T13:24:19.620Z,12.14
2023-05-19T13:26:46.503Z,12.03
2023-05-19T13:29:13.195Z,12.39
2023-05-19T13:31:39.957Z,12.70
2023-05-19T13:34:07.019Z,12.94
2023-05-19T13:36:34.961Z,12.56
2023-05-19T13:39:01.764Z,12.68
2023-05-19T13:41:29.503Z,13.20
2023-05-19T13:44:01.097Z,13.30
2023-05-19T13:46:40.815Z,13.23
2023-05-19T13:49:11.243Z,13.34
2023-05-19T13:51:42.610Z,13.80
2023-05-19T13:54:09.968Z,14.14
2023-05-19T13:56:36.857Z,14.23
2023-05-19T13:59:04.152Z,13.52
2023-05-19T14:01:31.012Z,13.63
2023-05-19T14:03:57.899Z,13.81
2023-05-19T14:06:24.818Z,14.13
2023-05-19T14:08:51.559Z,14.09
2023-05-19T14:11:22.595Z,13.96
2023-05-19T14:13:53.146Z,13.54
2023-05-19T14:16:23.106Z,13.62
2023-05-19T14:18:49.976Z,13.46
2023-05-19T14:21:16.819Z,13.47
2023-05-19T14:23:43.629Z,13.77
2023-05-19T14:26:10.349Z,13.81
2023-05-19T14:28:37.121Z,14.05
2023-05-19T14:31:03.981Z,13.40
2023-05-19T14:33:34.887Z,13.30
2023-05-19T14:36:02.354Z,13.88
2023-05-19T14:38:29.549Z,13.30
2023-05-19T14:40:56.659Z,13.06
2023-05-19T14:43:23.567Z,13.03
2023-05-19T14:45:50.330Z,12.62
2023-05-19T14:48:17.835Z,12.86
2023-05-19T14:50:44.847Z,12.55
2023-05-19T14:53:11.768Z,13.31
2023-05-19T14:55:38.478Z,13.83
2023-05-19T14:58:15.982Z,13.98
2023-05-19T15:00:52.342Z,13.90
2023-05-19T15:03:19.647Z,13.85
2023-05-19T15:05:46.435Z,13.46
2023-05-19T15:08:13.339Z,13.14
2023-05-19T15:10:40.077Z,13.49
2023-05-19T15:13:06.798Z,13.17
2023-05-19T15:15:33.523Z,13.17
2023-05-19T15:18:00.414Z,13.54
2023-05-19T15:20:29.359Z,13.30
2023-05-19T15:22:56.272Z,13.25
2023-05-19T15:25:22.992Z,13.28
2023-05-19T15:27:49.896Z,13.06
2023-05-19T15:30:16.689Z,12.59
2023-05-19T15:32:43.430Z,12.92
2023-05-19T15:35:10.270Z,12.88
2023-05-19T15:37:36.957Z,12.99
2023-05-19T15:40:04.512Z,12.34
2023-05-19T15:42:31.256Z,12.39
2023-05-19T15:44:57.967Z,12.72
2023-05-19T15:47:24.681Z,13.21
2023-05-19T15:49:51.526Z,13.13
2023-05-19T15:52:18.264Z,12.97
2023-05-19T15:54:45.055Z,11.89
2023-05-19T15:57:13.566Z,12.19
2023-05-19T15:59:40.300Z,11.86
2023-05-19T16:02:07.643Z,12.05
2023-05-19T16:04:34.440Z,11.99
2023-05-19T16:07:01.099Z,11.82
2023-05-19T16:09:27.760Z,12.30
2023-05-19T16:11:54.498Z,11.84
2023-05-19T16:14:21.109Z,11.78
2023-05-19T16:16:48.437Z,11.95
2023-05-19T16:19:15.232Z,12.12
2023-05-19T16:21:41.975Z,11.64
2023-05-19T16:24:08.713Z,11.31
2023-05-19T16:26:35.385Z,11.83
2023-05-19T16:29:02.201Z,12.36
2023-05-19T16:31:29.066Z,12.19
2023-05-19T16:33:55.723Z,12.20
2023-05-19T16:36:25.193Z,12.11
2023-05-19T16:38:51.827Z,12.05
2023-05-19T16:41:18.590Z,11.85
2023-05-19T16:43:45.354Z,12.15
2023-05-19T16:46:12.414Z,11.87
2023-05-19T16:48:39.198Z,12.51
2023-05-19T16:51:06.399Z,12.29
2023-05-19T16:53:33.140Z,12.09
2023-05-19T16:55:59.842Z,12.54
2023-05-19T16:58:28.029Z,12.67
2023-05-19T17:00:56.196Z,12.08
2023-05-19T17:03:23.001Z,12.13
2023-05-19T17:05:49.696Z,12.17
2023-05-19T17:08:16.615Z,12.15
2023-05-19T17:10:44.826Z,12.08
2023-05-19T17:13:11.738Z,11.93
2023-05-19T17:15:39.327Z,12.00
2023-05-19T17:18:07.052Z,12.30
2023-05-19T17:20:33.855Z,12.22
2023-05-19T17:23:00.656Z,12.31
2023-05-19T17:25:27.394Z,12.15
2023-05-19T17:27:55.659Z,12.13
2023-05-19T17:30:22.452Z,12.27
2023-05-19T17:32:49.407Z,12.29
2023-05-19T17:35:16.581Z,12.24
2023-05-19T17:37:43.251Z,12.24
2023-05-19T17:40:10.807Z,12.36
2023-05-19T17:42:37.483Z,12.21
2023-05-19T17:45:07.449Z,12.23
2023-05-19T17:47:34.493Z,12.18
2023-05-19T17:50:01.217Z,12.26
2023-05-19T17:52:28.233Z,12.13
2023-05-19T17:54:55.201Z,12.23
2023-05-19T17:57:25.309Z,11.87
2023-05-19T17:59:52.377Z,12.03
2023-05-19T18:02:19.746Z,12.22
2023-05-19T18:04:46.644Z,12.24
2023-05-19T18:07:14.280Z,12.34
2023-05-19T18:09:45.507Z,11.84
2023-05-19T18:12:12.611Z,11.87
2023-05-19T18:14:39.745Z,12.08
2023-05-19T18:17:06.538Z,12.13
2023-05-19T18:19:33.314Z,11.96
2023-05-19T18:22:00.144Z,12.02
2023-05-19T18:24:27.058Z,12.05
2023-05-19T18:26:53.788Z,12.19
2023-05-19T18:29:20.505Z,11.96
2023-05-19T18:31:47.289Z,12.13
2023-05-19T18:34:14.265Z,11.95
2023-05-19T18:36:41.277Z,11.69
2023-05-19T18:39:08.036Z,11.78
2023-05-19T18:41:34.761Z,11.84
2023-05-19T18:44:01.434Z,11.87
2023-05-19T18:46:28.177Z,11.97
2023-05-19T18:48:54.966Z,11.88
2023-05-19T18:51:22.262Z,11.67
2023-05-19T18:53:50.075Z,11.62
2023-05-19T18:56:27.530Z,11.75
2023-05-19T18:58:54.830Z,11.69
2023-05-19T19:01:21.686Z,11.75
2023-05-19T19:03:49.352Z,11.84
2023-05-19T19:06:23.395Z,11.88
2023-05-19T19:08:50.569Z,11.84
2023-05-19T19:11:17.270Z,11.84
2023-05-19T19:13:44.066Z,11.87
2023-05-19T19:16:11.079Z,11.89
2023-05-19T19:18:37.931Z,11.85
2023-05-19T19:21:05.967Z,11.89
2023-05-19T19:23:33.029Z,11.93
2023-05-19T19:26:00.144Z,11.99
2023-05-19T19:28:26.963Z,11.99
2023-05-19T19:30:53.734Z,11.55
2023-05-19T19:33:20.579Z,11.81
2023-05-19T19:35:47.517Z,11.87
2023-05-19T19:38:14.318Z,11.86
2023-05-19T19:40:41.161Z,11.89
2023-05-19T19:43:07.867Z,11.88
2023-05-19T19:45:34.899Z,11.67
2023-05-19T19:48:01.829Z,11.73
2023-05-19T19:50:28.616Z,11.86
2023-05-19T19:52:55.432Z,11.85
2023-05-19T19:55:22.164Z,11.86
2023-05-19T19:57:51.122Z,11.70
2023-05-19T20:00:18.558Z,11.33
2023-05-19T20:03:03.052Z,11.54
2023-05-19T20:05:31.476Z,11.27
2023-05-19T20:07:58.302Z,11.32
2023-05-19T20:10:25.044Z,11.50
2023-05-19T20:12:52.092Z,11.62
2023-05-19T20:15:18.862Z,11.60
2023-05-19T20:17:45.881Z,11.70
2023-05-19T20:20:13.090Z,11.72
2023-05-19T20:22:40.025Z,11.67
2023-05-19T20:25:07.250Z,11.74
2023-05-19T20:27:33.997Z,11.76
2023-05-19T20:30:00.746Z,11.52
2023-05-19T20:32:27.539Z,11.64
2023-05-19T20:34:54.271Z,11.67
2023-05-19T20:37:22.168Z,11.67
2023-05-19T20:39:49.054Z,11.66
2023-05-19T20:42:16.064Z,11.64
2023-05-19T20:44:42.875Z,11.68
2023-05-19T20:47:09.601Z,11.63
2023-05-19T20:49:36.425Z,10.86
2023-05-19T20:52:03.501Z,10.67
2023-05-19T20:54:30.207Z,11.07
2023-05-19T20:56:57.018Z,11.07
2023-05-19T20:59:23.720Z,10.95
2023-05-19T21:01:50.549Z,10.88
2023-05-19T21:04:17.507Z,11.15
2023-05-19T21:06:44.319Z,10.94
2023-05-19T21:09:11.447Z,10.92
2023-05-19T21:11:38.277Z,11.05
2023-05-19T21:14:05.106Z,10.78
2023-05-19T21:16:32.395Z,10.99
2023-05-19T21:18:59.214Z,11.01
2023-05-19T21:21:26.407Z,11.08
2023-05-19T21:23:53.105Z,10.96
2023-05-19T21:26:19.870Z,10.82
2023-05-19T21:28:47.050Z,11.06
2023-05-19T21:31:13.828Z,10.75
2023-05-19T21:33:40.603Z,10.58
2023-05-19T21:36:07.673Z,10.53
2023-05-19T21:38:34.382Z,10.39
2023-05-19T21:41:01.106Z,10.51
2023-05-19T21:43:27.828Z,10.58
2023-05-19T21:45:54.480Z,10.29
2023-05-19T21:48:21.658Z,10.54
2023-05-19T21:50:55.279Z,10.37
2023-05-19T21:53:22.106Z,10.69
2023-05-19T21:55:48.972Z,10.88
2023-05-19T21:58:16.114Z,10.81
2023-05-19T22:00:43.463Z,10.92
2023-05-19T22:03:10.292Z,10.92
2023-05-19T22:05:38.257Z,11.06
2023-05-19T22:08:05.297Z,11.07
2023-05-19T22:10:32.260Z,11.09
2023-05-19T22:12:59.353Z,11.01
2023-05-19T22:15:26.720Z,10.95
2023-05-19T22:17:53.554Z,10.96
2023-05-19T22:20:20.503Z,10.76
2023-05-19T22:22:47.300Z,10.80
2023-05-19T22:25:14.218Z,10.92
2023-05-19T22:27:40.864Z,10.43
2023-05-19T22:30:08.053Z,10.71
2023-05-19T22:32:35.217Z,10.82
2023-05-19T22:35:01.973Z,10.83
2023-05-19T22:37:29.044Z,10.70
2023-05-19T22:39:56.248Z,10.47
2023-05-19T22:42:22.941Z,10.58
2023-05-19T22:44:49.666Z,10.33
2023-05-19T22:47:16.562Z,10.36
2023-05-19T22:49:43.468Z,10.27
2023-05-19T22:52:11.225Z,10.25
2023-05-19T22:54:38.332Z,10.36
2023-05-19T22:57:05.523Z,10.43
2023-05-19T22:59:32.261Z,10.40
2023-05-19T23:01:59.023Z,10.30
2023-05-19T23:04:26.109Z,10.28
2023-05-19T23:06:52.826Z,10.40
2023-05-19T23:09:19.667Z,10.48
2023-05-19T23:11:46.345Z,10.60
2023-05-19T23:14:13.481Z,10.69
2023-05-19T23:16:40.355Z,10.75
2023-05-19T23:19:07.309Z,10.82
2023-05-19T23:21:34.026Z,10.52
2023-05-19T23:24:01.029Z,10.76
2023-05-19T23:26:27.783Z,10.85
2023-05-19T23:28:54.543Z,10.86
2023-05-19T23:31:21.356Z,10.95
2023-05-19T23:33:48.081Z,10.99
2023-05-19T23:36:14.810Z,11.04
2023-05-19T23:38:41.498Z,11.07
2023-05-19T23:41:08.347Z,11.08
2023-05-19T23:43:35.085Z,10.80
2023-05-19T23:46:01.931Z,10.63
2023-05-19T23:48:29.429Z,10.66
2023-05-19T23:50:57.720Z,10.66
2023-05-19T23:53:25.048Z,10.61
2023-05-19T23:55:51.798Z,10.83
2023-05-19T23:58:18.807Z,10.91
